createdAt,value
2022-12-11T00:01:46.142Z,98547.56
2022-12-11T00:04:13.201Z,98569.38
2022-12-11T00:06:40.328Z,98557.28
2022-12-11T00:09:07.263Z,98562.34
2022-12-11T00:11:34.292Z,98569.38
2022-12-11T00:14:01.398Z,98530.97
2022-12-11T00:16:28.490Z,98565.13
2022-12-11T00:18:55.808Z,98559.94
2022-12-11T00:21:22.949Z,98531.19
2022-12-11T00:23:50.220Z,98560.75
2022-12-11T00:26:17.807Z,98559.81
2022-12-11T00:28:45.335Z,98558.94
2022-12-11T00:31:19.704Z,98544.03
2022-12-11T00:33:49.428Z,98548.56
2022-12-11T00:36:20.235Z,98566.78
2022-12-11T00:38:48.963Z,98553.63
2022-12-11T00:41:16.354Z,98533.38
2022-12-11T00:43:43.517Z,98564.06
2022-12-11T00:46:11.139Z,98533.50
2022-12-11T00:48:38.238Z,98551.81
2022-12-11T00:51:05.910Z,98565.81
2022-12-11T00:53:33.467Z,98570.09
2022-12-11T00:56:00.587Z,98545.50
2022-12-11T00:58:27.835Z,98577.06
2022-12-11T01:00:54.891Z,98569.16
2022-12-11T01:03:22.041Z,98550.88
2022-12-11T01:05:54.201Z,98546.50
2022-12-11T01:08:21.744Z,98558.94
2022-12-11T01:10:49.049Z,98558.94
2022-12-11T01:13:16.601Z,98581.47
2022-12-11T01:15:45.816Z,98560.63
2022-12-11T01:18:15.257Z,98559.81
2022-12-11T01:20:43.884Z,98569.47
2022-12-11T01:23:13.353Z,98571.28
2022-12-11T01:25:41.942Z,98569.59
2022-12-11T01:28:09.204Z,98559.22
2022-12-11T01:30:37.122Z,98574.72
2022-12-11T01:33:04.234Z,98570.31
2022-12-11T01:35:31.385Z,98548.53
2022-12-11T01:37:59.448Z,98566.97
2022-12-11T01:40:26.920Z,98555.56
2022-12-11T01:42:54.139Z,98566.03
2022-12-11T01:45:32.878Z,98556.34
2022-12-11T01:48:11.145Z,98571.13
2022-12-11T01:50:53.681Z,98551.88
2022-12-11T01:53:25.486Z,98585.88
2022-12-11T01:55:55.584Z,98553.53
2022-12-11T01:58:27.799Z,98538.59
2022-12-11T02:00:55.913Z,98558.72
2022-12-11T02:03:23.221Z,98562.38
2022-12-11T02:05:50.445Z,98575.28
2022-12-11T02:08:18.092Z,98556.75
2022-12-11T02:11:10.832Z,98591.69
2022-12-11T02:14:05.457Z,98583.00
2022-12-11T02:16:52.625Z,98583.09
2022-12-11T02:19:41.042Z,98584.78
2022-12-11T02:22:13.938Z,98570.75
2022-12-11T02:24:57.723Z,98588.19
2022-12-11T02:27:36.526Z,98595.03
2022-12-11T02:30:09.331Z,98599.41
2022-12-11T02:32:43.495Z,98587.91
2022-12-11T02:35:16.252Z,98617.66
2022-12-11T02:37:46.695Z,98608.97
2022-12-11T02:40:15.421Z,98613.47
2022-12-11T02:42:44.522Z,98615.13
2022-12-11T02:45:13.676Z,98614.06
2022-12-11T02:47:45.016Z,98629.78
2022-12-11T02:50:16.066Z,98632.44
2022-12-11T02:52:44.690Z,98633.34
2022-12-11T02:55:15.139Z,98618.56
2022-12-11T02:57:58.257Z,98624.72
2022-12-11T03:00:25.192Z,98632.44
2022-12-11T03:02:52.497Z,98636.78
2022-12-11T03:05:19.582Z,98629.84
2022-12-11T03:07:46.776Z,98580.81
2022-12-11T03:10:18.954Z,98645.31
2022-12-11T03:12:53.393Z,98639.19
2022-12-11T03:15:27.443Z,98625.00
2022-12-11T03:18:19.068Z,98657.50
2022-12-11T03:21:06.346Z,98658.34
2022-12-11T03:23:54.940Z,98658.47
2022-12-11T03:26:24.859Z,98652.13
2022-12-11T03:29:04.965Z,98667.94
2022-12-11T03:31:40.537Z,98624.00
2022-12-11T03:34:19.867Z,98653.78
2022-12-11T03:36:49.242Z,98664.31
2022-12-11T03:39:22.420Z,98669.44
2022-12-11T03:41:51.955Z,98673.03
2022-12-11T03:44:20.678Z,98666.97
2022-12-11T03:46:49.308Z,98679.84
2022-12-11T03:49:26.833Z,98681.63
2022-12-11T03:51:56.652Z,98660.66
2022-12-11T03:54:25.059Z,98658.75
2022-12-11T03:56:55.720Z,98665.84
2022-12-11T03:59:23.011Z,98682.31
2022-12-11T04:01:50.493Z,98684.88
2022-12-11T04:04:17.601Z,98677.00
2022-12-11T04:06:44.658Z,98664.69
2022-12-11T04:09:11.857Z,98652.56
2022-12-11T04:11:39.692Z,98688.19
2022-12-11T04:14:29.133Z,98711.63
2022-12-11T04:16:57.259Z,98702.91
2022-12-11T04:19:43.820Z,98715.97
2022-12-11T04:22:33.933Z,98711.66
2022-12-11T04:25:02.799Z,98704.72
2022-12-11T04:27:49.097Z,98706.31
2022-12-11T04:30:22.464Z,98711.53
2022-12-11T04:32:50.197Z,98706.94
2022-12-11T04:35:18.107Z,98718.25
2022-12-11T04:37:45.095Z,98729.81
2022-12-11T04:40:15.021Z,98721.22
2022-12-11T04:42:42.152Z,98709.78
2022-12-11T04:45:10.231Z,98714.25
2022-12-11T04:47:39.279Z,98720.28
2022-12-11T04:50:09.192Z,98726.47
2022-12-11T04:52:36.833Z,98709.94
2022-12-11T04:55:05.822Z,98702.03
2022-12-11T04:57:32.784Z,98712.28
2022-12-11T05:00:00.223Z,98732.38
2022-12-11T05:02:27.327Z,98729.81
2022-12-11T05:04:54.273Z,98719.44
2022-12-11T05:07:21.352Z,98712.41
2022-12-11T05:09:48.380Z,98693.25
2022-12-11T05:12:15.291Z,98705.50
2022-12-11T05:14:42.283Z,98713.28
2022-12-11T05:17:09.287Z,98693.78
2022-12-11T05:19:36.333Z,98720.09
2022-12-11T05:22:03.307Z,98718.41
2022-12-11T05:24:30.379Z,98726.94
2022-12-11T05:26:57.312Z,98726.78
2022-12-11T05:29:24.303Z,98754.59
2022-12-11T05:31:51.500Z,98752.91
2022-12-11T05:34:18.540Z,98762.31
2022-12-11T05:36:45.656Z,98712.38
2022-12-11T05:39:12.799Z,98770.03
2022-12-11T05:41:40.394Z,98769.19
2022-12-11T05:44:07.362Z,98786.34
2022-12-11T05:46:34.440Z,98752.97
2022-12-11T05:49:02.706Z,98800.28
2022-12-11T05:51:30.874Z,98772.22
2022-12-11T05:53:58.375Z,98795.13
2022-12-11T05:56:34.201Z,98762.69
2022-12-11T05:59:02.490Z,98813.19
2022-12-11T06:01:39.109Z,98784.16
2022-12-11T06:04:07.352Z,98818.28
2022-12-11T06:06:35.330Z,98830.41
2022-12-11T06:09:04.345Z,98776.13
2022-12-11T06:11:34.330Z,98836.28
2022-12-11T06:14:03.231Z,98844.81
2022-12-11T06:16:30.272Z,98841.53
2022-12-11T06:18:58.607Z,98832.41
2022-12-11T06:21:32.184Z,98863.91
2022-12-11T06:24:02.292Z,98858.56
2022-12-11T06:26:30.015Z,98863.63
2022-12-11T06:28:57.144Z,98852.16
2022-12-11T06:31:25.688Z,98868.91
2022-12-11T06:33:52.841Z,98856.88
2022-12-11T06:36:22.187Z,98833.03
2022-12-11T06:38:49.905Z,98855.75
2022-12-11T06:41:17.453Z,98835.53
2022-12-11T06:43:45.272Z,98862.06
2022-12-11T06:46:16.660Z,98867.28
2022-12-11T06:48:44.573Z,98833.97
2022-12-11T06:51:14.729Z,98849.78
2022-12-11T06:53:42.441Z,98867.31
2022-12-11T06:56:15.437Z,98860.44
2022-12-11T06:58:44.226Z,98849.78
2022-12-11T07:01:21.724Z,98860.41
2022-12-11T07:03:49.690Z,98845.56
2022-12-11T07:06:17.495Z,98700.50
2022-12-11T07:08:44.728Z,98876.66
2022-12-11T07:11:14.341Z,98866.00
2022-12-11T07:13:45.432Z,98878.16
2022-12-11T07:16:14.854Z,98889.50
2022-12-11T07:18:44.356Z,98868.44
2022-12-11T07:21:13.627Z,98900.13
2022-12-11T07:23:41.479Z,98891.34
2022-12-11T07:26:14.316Z,98884.50
2022-12-11T07:28:42.440Z,98891.19
2022-12-11T07:31:18.991Z,98905.13
2022-12-11T07:33:46.227Z,98914.69
2022-12-11T07:36:14.538Z,98889.38
2022-12-11T07:38:41.541Z,98923.31
2022-12-11T07:41:11.365Z,98920.91
2022-12-11T07:43:38.596Z,98919.97
2022-12-11T07:46:08.912Z,98923.38
2022-12-11T07:48:37.523Z,98911.22
2022-12-11T07:51:17.715Z,98901.81
2022-12-11T07:53:46.941Z,98884.34
2022-12-11T07:56:16.438Z,98889.50
2022-12-11T07:58:44.549Z,98873.69
2022-12-11T08:01:13.777Z,98885.91
2022-12-11T08:03:41.063Z,98894.56
2022-12-11T08:06:08.453Z,98891.09
2022-12-11T08:08:35.538Z,98885.41
2022-12-11T08:11:04.136Z,98926.84
2022-12-11T08:13:32.040Z,98895.88
2022-12-11T08:15:59.809Z,98889.97
2022-12-11T08:18:26.894Z,98928.66
2022-12-11T08:20:56.357Z,98892.41
2022-12-11T08:23:23.361Z,98937.94
2022-12-11T08:25:50.380Z,98921.19
2022-12-11T08:28:17.480Z,98936.19
2022-12-11T08:30:45.037Z,98924.78
2022-12-11T08:33:14.743Z,98927.41
2022-12-11T08:35:42.391Z,98915.84
2022-12-11T08:38:09.698Z,98850.88
2022-12-11T08:40:36.893Z,98949.03
2022-12-11T08:43:04.168Z,98943.72
2022-12-11T08:45:33.732Z,98931.91
2022-12-11T08:48:02.595Z,98962.84
2022-12-11T08:50:30.002Z,98926.91
2022-12-11T08:53:00.016Z,98963.81
2022-12-11T08:55:27.327Z,98937.38
2022-12-11T08:57:54.332Z,98938.84
2022-12-11T09:00:21.819Z,98972.13
2022-12-11T09:02:49.030Z,98983.50
2022-12-11T09:05:16.309Z,98985.16
2022-12-11T09:07:43.575Z,98961.50
2022-12-11T09:10:10.743Z,98985.22
2022-12-11T09:12:38.105Z,98980.72
2022-12-11T09:15:05.930Z,98983.09
2022-12-11T09:17:35.532Z,98994.69
2022-12-11T09:20:03.288Z,99003.44
2022-12-11T09:22:33.617Z,98979.97
2022-12-11T09:25:03.702Z,98947.31
2022-12-11T09:27:31.203Z,98968.41
2022-12-11T09:29:58.197Z,98982.56
2022-12-11T09:32:25.251Z,98986.66
2022-12-11T09:34:52.245Z,98961.16
2022-12-11T09:37:22.315Z,99001.34
2022-12-11T09:39:49.376Z,99004.47
2022-12-11T09:42:38.707Z,99023.00
2022-12-11T09:45:11.170Z,98990.56
2022-12-11T09:47:44.328Z,99006.91
2022-12-11T09:50:23.369Z,98967.78
2022-12-11T09:53:13.812Z,99003.09
2022-12-11T09:55:49.470Z,99004.94
2022-12-11T09:58:43.031Z,98972.28
2022-12-11T10:01:18.626Z,98981.88
2022-12-11T10:04:07.143Z,99026.63
2022-12-11T10:07:02.434Z,98969.78
2022-12-11T10:09:56.090Z,99012.84
2022-12-11T10:12:45.943Z,99006.63
2022-12-11T10:15:25.633Z,98969.03
2022-12-11T10:18:04.674Z,99011.56
2022-12-11T10:20:39.266Z,99019.44
2022-12-11T10:23:15.441Z,99021.19
2022-12-11T10:25:50.983Z,99024.69
2022-12-11T10:28:20.495Z,99006.28
2022-12-11T10:30:56.615Z,99019.34
2022-12-11T10:33:44.333Z,98996.31
2022-12-11T10:36:18.113Z,98970.91
2022-12-11T10:38:46.984Z,99031.50
2022-12-11T10:41:24.779Z,99029.50
2022-12-11T10:43:53.489Z,99037.34
2022-12-11T10:46:26.388Z,99023.47
2022-12-11T10:48:57.526Z,99023.44
2022-12-11T10:51:32.254Z,99026.00
2022-12-11T10:54:17.609Z,99023.38
2022-12-11T10:56:48.722Z,99013.69
2022-12-11T10:59:49.876Z,99008.56
2022-12-11T11:02:28.560Z,99005.84
2022-12-11T11:04:58.569Z,98964.47
2022-12-11T11:07:34.828Z,98985.25
2022-12-11T11:10:17.869Z,98993.16
2022-12-11T11:12:48.418Z,98982.63
2022-12-11T11:15:19.999Z,98963.56
2022-12-11T11:17:55.784Z,98988.28
2022-12-11T11:20:27.135Z,98970.97
2022-12-11T11:22:57.921Z,98984.69
2022-12-11T11:25:27.808Z,98969.94
2022-12-11T11:28:01.164Z,98977.66
2022-12-11T11:30:31.301Z,98978.53
2022-12-11T11:33:19.598Z,98981.97
2022-12-11T11:35:58.906Z,98994.06
2022-12-11T11:38:52.380Z,98987.88
2022-12-11T11:41:25.643Z,98984.16
2022-12-11T11:43:57.957Z,98993.03
2022-12-11T11:46:43.593Z,98997.34
2022-12-11T11:49:23.197Z,98977.13
2022-12-11T11:52:01.350Z,98996.34
2022-12-11T11:54:39.787Z,98972.69
2022-12-11T11:57:29.743Z,98993.75
2022-12-11T12:00:13.362Z,98984.66
2022-12-11T12:02:41.637Z,99003.19
2022-12-11T12:05:15.956Z,98947.91
2022-12-11T12:08:00.287Z,99011.66
2022-12-11T12:10:44.461Z,99011.78
2022-12-11T12:13:49.113Z,99014.25
2022-12-11T12:16:52.773Z,99006.19
2022-12-11T12:19:42.721Z,99027.25
2022-12-11T12:22:28.230Z,98977.91
2022-12-11T12:25:24.906Z,99021.22
2022-12-11T12:28:31.902Z,99026.34
2022-12-11T12:31:33.343Z,99022.00
2022-12-11T12:34:35.514Z,99020.31
2022-12-11T12:37:18.005Z,99023.81
2022-12-11T12:40:17.288Z,99029.94
2022-12-11T12:42:44.225Z,99027.34
2022-12-11T12:45:23.958Z,99027.38
2022-12-11T12:47:53.617Z,99014.44
2022-12-11T12:50:36.993Z,99005.94
2022-12-11T12:53:06.581Z,98991.09
2022-12-11T12:55:35.992Z,98990.44
2022-12-11T12:58:09.340Z,98999.78
2022-12-11T13:00:44.171Z,99002.53
2022-12-11T13:03:17.471Z,99006.75
2022-12-11T13:06:08.441Z,98971.75
2022-12-11T13:09:20.903Z,99014.50
2022-12-11T13:11:58.084Z,98980.44
2022-12-11T13:14:34.273Z,99008.47
2022-12-11T13:17:22.484Z,99003.06
2022-12-11T13:19:53.216Z,98998.03
2022-12-11T13:22:25.031Z,99001.38
2022-12-11T13:25:17.110Z,98990.00
2022-12-11T13:27:44.892Z,98971.75
2022-12-11T13:30:15.145Z,98974.38
2022-12-11T13:32:57.391Z,98976.06
2022-12-11T13:35:25.341Z,98962.28
2022-12-11T13:37:59.917Z,98942.28
2022-12-11T13:40:33.548Z,98954.59
2022-12-11T13:43:05.862Z,98948.72
2022-12-11T13:45:43.523Z,98943.53
2022-12-11T13:48:21.541Z,98919.72
2022-12-11T13:50:51.107Z,98950.44
2022-12-11T13:53:20.312Z,98934.63
2022-12-11T13:55:57.398Z,98956.47
2022-12-11T13:58:25.083Z,98914.38
2022-12-11T14:00:59.824Z,98948.69
2022-12-11T14:03:31.278Z,98932.25
2022-12-11T14:05:59.724Z,98912.81
2022-12-11T14:08:34.261Z,98915.81
2022-12-11T14:11:02.154Z,98934.22
2022-12-11T14:13:36.564Z,98917.81
2022-12-11T14:16:04.618Z,98884.63
2022-12-11T14:18:34.113Z,98914.50
2022-12-11T14:21:06.378Z,98919.69
2022-12-11T14:23:35.824Z,98894.06
2022-12-11T14:26:25.473Z,98896.78
2022-12-11T14:28:53.241Z,98911.88
2022-12-11T14:31:37.709Z,98929.34
2022-12-11T14:34:15.832Z,98928.28
2022-12-11T14:36:44.218Z,98923.34
2022-12-11T14:39:21.592Z,98925.81
2022-12-11T14:41:48.505Z,98917.16
2022-12-11T14:44:18.000Z,98902.88
2022-12-11T14:46:52.762Z,98938.13
2022-12-11T14:49:31.677Z,98940.00
2022-12-11T14:52:00.216Z,98945.16
2022-12-11T14:54:36.161Z,98940.97
2022-12-11T14:57:06.777Z,98930.72
2022-12-11T14:59:41.450Z,98919.50
2022-12-11T15:02:33.004Z,98909.25
2022-12-11T15:05:02.163Z,98900.66
2022-12-11T15:07:30.981Z,98865.72
2022-12-11T15:09:57.970Z,98853.41
2022-12-11T15:12:26.038Z,98816.03
2022-12-11T15:15:00.889Z,98843.34
2022-12-11T15:17:33.846Z,98862.78
2022-12-11T15:20:11.932Z,98842.97
2022-12-11T15:22:43.632Z,98791.56
2022-12-11T15:25:26.977Z,98795.28
2022-12-11T15:27:57.926Z,98781.00
2022-12-11T15:30:27.889Z,98785.66
2022-12-11T15:33:03.965Z,98803.44
2022-12-11T15:35:31.366Z,98812.81
2022-12-11T15:37:58.969Z,98824.22
2022-12-11T15:40:34.967Z,98818.66
2022-12-11T15:43:03.606Z,98819.72
2022-12-11T15:45:30.852Z,98829.34
2022-12-11T15:47:59.669Z,98820.78
2022-12-11T15:50:29.416Z,98806.72
2022-12-11T15:52:57.303Z,98817.47
2022-12-11T15:55:27.075Z,98825.19
2022-12-11T15:58:01.373Z,98791.28
2022-12-11T16:00:28.680Z,98805.22
2022-12-11T16:03:00.017Z,98769.00
2022-12-11T16:05:27.672Z,98787.47
2022-12-11T16:07:56.631Z,98769.19
2022-12-11T16:10:23.635Z,98783.19
2022-12-11T16:12:50.833Z,98760.03
2022-12-11T16:15:23.523Z,98768.47
2022-12-11T16:18:09.666Z,98766.50
2022-12-11T16:20:39.286Z,98767.72
2022-12-11T16:23:06.921Z,98779.75
2022-12-11T16:25:34.861Z,98743.81
2022-12-11T16:28:02.085Z,98764.03
2022-12-11T16:30:29.931Z,98750.31
2022-12-11T16:32:57.218Z,98766.09
2022-12-11T16:35:24.406Z,98731.88
2022-12-11T16:37:53.442Z,98761.59
2022-12-11T16:40:24.429Z,98765.19
2022-12-11T16:42:52.143Z,98761.53
2022-12-11T16:45:26.719Z,98776.47
2022-12-11T16:48:03.050Z,98721.63
2022-12-11T16:50:43.161Z,98737.47
2022-12-11T16:53:17.733Z,98719.94
2022-12-11T16:55:45.034Z,98708.66
2022-12-11T16:58:16.445Z,98728.16
2022-12-11T17:00:43.644Z,98711.44
2022-12-11T17:03:10.820Z,98723.88
2022-12-11T17:05:42.809Z,98712.88
2022-12-11T17:08:11.734Z,98706.75
2022-12-11T17:10:40.916Z,98693.78
2022-12-11T17:13:08.206Z,98700.00
2022-12-11T17:15:42.230Z,98689.66
2022-12-11T17:18:13.812Z,98685.31
2022-12-11T17:20:47.886Z,98681.88
2022-12-11T17:23:26.394Z,98644.50
2022-12-11T17:26:05.297Z,98655.91
2022-12-11T17:28:38.163Z,98646.25
2022-12-11T17:31:13.439Z,98615.91
2022-12-11T17:33:42.069Z,98628.41
2022-12-11T17:36:13.463Z,98630.88
2022-12-11T17:38:40.970Z,98625.56
2022-12-11T17:41:09.569Z,98636.09
2022-12-11T17:43:37.008Z,98628.34
2022-12-11T17:46:07.748Z,98628.34
2022-12-11T17:48:37.922Z,98634.41
2022-12-11T17:51:07.755Z,98628.38
2022-12-11T17:53:38.753Z,98612.53
2022-12-11T17:56:08.618Z,98631.00
2022-12-11T17:58:36.408Z,98618.97
2022-12-11T18:01:08.325Z,98602.41
2022-12-11T18:03:37.082Z,98619.00
2022-12-11T18:06:10.643Z,98563.22
2022-12-11T18:08:39.051Z,98582.84
2022-12-11T18:11:11.952Z,98588.03
2022-12-11T18:13:39.632Z,98587.22
2022-12-11T18:16:11.571Z,98584.69
2022-12-11T18:18:40.007Z,98565.28
2022-12-11T18:21:07.224Z,98594.16
2022-12-11T18:23:34.970Z,98587.28
2022-12-11T18:26:02.316Z,98586.50
2022-12-11T18:28:32.205Z,98572.66
2022-12-11T18:31:03.977Z,98552.38
2022-12-11T18:33:32.341Z,98614.91
2022-12-11T18:35:59.529Z,98604.59
2022-12-11T18:38:26.920Z,98626.19
2022-12-11T18:40:54.169Z,98607.09
2022-12-11T18:43:21.294Z,98638.97
2022-12-11T18:45:52.034Z,98604.50
2022-12-11T18:48:19.231Z,98615.94
2022-12-11T18:50:48.120Z,98606.91
2022-12-11T18:53:17.929Z,98627.19
2022-12-11T18:56:05.226Z,98608.97
2022-12-11T19:08:17.551Z,98578.97
2022-12-11T19:17:25.026Z,98554.72
2022-12-11T19:20:19.037Z,98560.94
2022-12-11T19:26:14.168Z,98561.78
2022-12-11T19:28:48.493Z,98548.53
2022-12-11T19:34:33.326Z,98568.75
2022-12-11T19:37:20.250Z,98526.00
2022-12-11T19:39:51.490Z,98556.56
2022-12-11T19:42:20.189Z,98540.00
2022-12-11T19:45:04.148Z,98537.59
2022-12-11T19:47:35.358Z,98505.88
2022-12-11T19:50:16.548Z,98552.31
2022-12-11T19:53:05.559Z,98527.94
2022-12-11T19:55:33.311Z,98534.88
2022-12-11T19:58:00.475Z,98523.66
2022-12-11T20:00:28.687Z,98510.69
2022-12-11T20:02:59.927Z,98539.56
2022-12-11T20:05:27.005Z,98534.47
2022-12-11T20:07:59.491Z,98531.72
2022-12-11T20:10:39.639Z,98541.44
2022-12-11T20:13:07.205Z,98500.41
2022-12-11T20:15:34.538Z,98533.75
2022-12-11T20:18:02.176Z,98527.69
2022-12-11T20:20:30.213Z,98526.91
2022-12-11T20:23:16.838Z,98512.91
2022-12-11T20:26:37.257Z,98513.09
2022-12-11T20:29:16.277Z,98508.84
2022-12-11T20:32:01.358Z,98512.25
2022-12-11T20:34:32.102Z,98484.25
2022-12-11T20:37:00.681Z,98509.69
2022-12-11T20:39:27.741Z,98501.97
2022-12-11T20:41:57.693Z,98492.38
2022-12-11T20:44:47.185Z,98479.41
2022-12-11T20:47:16.286Z,98475.13
2022-12-11T20:49:43.936Z,98466.63
2022-12-11T20:52:10.947Z,98459.81
2022-12-11T20:54:41.112Z,98451.94
2022-12-11T20:57:08.626Z,98454.69
2022-12-11T20:59:36.743Z,98445.94
2022-12-11T21:02:05.884Z,98459.81
2022-12-11T21:04:33.383Z,98417.00
2022-12-11T21:07:01.036Z,98455.50
2022-12-11T21:09:29.459Z,98434.72
2022-12-11T21:12:00.451Z,98435.75
2022-12-11T21:14:29.247Z,98403.47
2022-12-11T21:16:56.503Z,98412.22
2022-12-11T21:19:24.540Z,98407.94
2022-12-11T21:21:52.860Z,98427.22
2022-12-11T21:24:26.890Z,98416.97
2022-12-11T21:26:56.504Z,98418.75
2022-12-11T21:29:25.430Z,98361.31
2022-12-11T21:31:53.325Z,98416.97
2022-12-11T21:34:25.318Z,98404.91
2022-12-11T21:36:57.069Z,98408.47
2022-12-11T21:39:26.249Z,98383.41
2022-12-11T21:41:53.507Z,98402.53
2022-12-11T21:47:09.918Z,98355.59
2022-12-11T21:49:38.194Z,98382.69
2022-12-11T21:52:05.718Z,98355.59
2022-12-11T21:54:32.864Z,98372.34
2022-12-11T21:57:00.134Z,98368.84
2022-12-11T21:59:28.730Z,98335.72
2022-12-11T22:01:55.855Z,98328.91
2022-12-11T22:04:22.918Z,98356.00
2022-12-11T22:06:50.141Z,98321.31
2022-12-11T22:09:18.145Z,98353.47
2022-12-11T22:11:46.447Z,98310.94
2022-12-11T22:14:15.633Z,98333.66
2022-12-11T22:16:43.567Z,98309.34
2022-12-11T22:19:10.850Z,98315.50
2022-12-11T22:21:38.279Z,98301.66
2022-12-11T22:24:05.579Z,98305.00
2022-12-11T22:26:33.153Z,98288.59
2022-12-11T22:29:00.200Z,98292.97
2022-12-11T22:31:28.351Z,98296.56
2022-12-11T22:33:55.727Z,98276.53
2022-12-11T22:36:25.433Z,98290.69
2022-12-11T22:38:52.844Z,98267.38
2022-12-11T22:41:27.921Z,98310.59
2022-12-11T22:43:56.068Z,98284.53
2022-12-11T22:46:25.603Z,98270.88
2022-12-11T22:48:53.898Z,98272.69
2022-12-11T22:51:21.577Z,98254.56
2022-12-11T22:53:48.979Z,98263.25
2022-12-11T22:56:16.693Z,98251.13
2022-12-11T22:58:43.838Z,98243.19
2022-12-11T23:01:18.403Z,98239.91
2022-12-11T23:03:46.558Z,98219.03
2022-12-11T23:06:16.093Z,98229.66
2022-12-11T23:08:44.145Z,98227.91
2022-12-11T23:11:21.519Z,98219.19
2022-12-11T23:13:48.633Z,98193.13
2022-12-11T23:16:16.108Z,98170.63
2022-12-11T23:18:43.372Z,98207.28
2022-12-11T23:21:11.635Z,98183.00
2022-12-11T23:23:39.068Z,98171.00
2022-12-11T23:26:08.834Z,98134.53
2022-12-11T23:28:36.357Z,98141.34
2022-12-11T23:31:03.654Z,98153.75
2022-12-11T23:33:31.113Z,98210.84
2022-12-11T23:35:59.482Z,98174.47
2022-12-11T23:38:27.833Z,98186.56
2022-12-11T23:40:56.150Z,98127.72
2022-12-11T23:43:23.429Z,98180.69
2022-12-11T23:45:50.569Z,98140.81
2022-12-11T23:48:18.022Z,98176.41
2022-12-11T23:50:46.167Z,98131.34
2022-12-11T23:53:13.320Z,98161.56
2022-12-11T23:55:42.648Z,98113.91
2022-12-11T23:58:10.937Z,98159.09
